Time;durP1;ratioP1;P1;durP2;ratioP2;P2;SDS_P1;SDS_P2;PMS_P1;PMS_P2;Temp;Humidity;BMP_temperature;BMP_pressure;BME280_temperature;BME280_humidity;BME280_pressure;Samples;Min_cycle;Max_cycle;Signal;HPM_P1;HPM_P2
2022/04/11 00:01:28;;;;;;;7.87;4.10;;;;;;;2.55;64.26;99390.41;5063047;28;42139;-78
2022/04/11 00:03:56;;;;;;;4.43;3.63;;;;;;;2.53;64.86;99379.13;5054637;28;41237;-78
2022/04/11 00:06:24;;;;;;;6.30;3.40;;;;;;;2.51;65.71;99376.53;5054779;28;38951;-77
2022/04/11 00:08:52;;;;;;;3.63;2.90;;;;;;;2.50;65.72;99364.34;5063420;28;41649;-78
2022/04/11 00:11:19;;;;;;;3.70;3.03;;;;;;;2.48;66.02;99363.53;5058764;28;42992;-78
2022/04/11 00:13:47;;;;;;;6.43;3.77;;;;;;;2.45;66.86;99366.22;5058311;28;42462;-78
2022/04/11 00:16:14;;;;;;;5.50;3.40;;;;;;;2.43;67.26;99360.16;5063018;28;40460;-78
2022/04/11 00:18:43;;;;;;;4.17;3.30;;;;;;;2.44;66.90;99367.13;5054070;28;41940;-78
2022/04/11 00:21:12;;;;;;;6.23;3.70;;;;;;;2.29;66.49;99354.38;5071952;28;43731;-77
2022/04/11 00:23:39;;;;;;;4.20;3.30;;;;;;;2.39;66.42;99376.78;5063314;28;42305;-78
2022/04/11 00:26:07;;;;;;;3.50;3.20;;;;;;;2.37;66.05;99373.34;5065419;28;38978;-77
2022/04/11 00:28:35;;;;;;;4.73;4.13;;;;;;;2.34;65.91;99373.44;5091493;28;42776;-78
2022/04/11 00:31:02;;;;;;;5.10;3.17;;;;;;;2.31;65.71;99368.25;5090911;28;41697;-78
2022/04/11 00:33:30;;;;;;;3.40;3.03;;;;;;;2.27;65.68;99369.22;5054242;28;42058;-78
2022/04/11 00:36:00;;;;;;;2.80;2.50;;;;;;;2.24;65.40;99373.63;5078592;28;40845;-78
2022/04/11 00:38:27;;;;;;;5.30;3.23;;;;;;;2.20;65.34;99370.25;5092039;28;42025;-78
2022/04/11 00:40:55;;;;;;;4.40;2.80;;;;;;;2.16;65.44;99372.06;5073919;28;41932;-78
2022/04/11 00:43:31;;;;;;;8.33;3.53;;;;;;;2.03;65.72;99351.44;5090259;28;42104;-78
2022/04/11 00:45:59;;;;;;;3.43;2.60;;;;;;;1.95;65.50;99340.28;5087726;28;41662;-79
2022/04/11 00:48:27;;;;;;;3.20;2.37;;;;;;;2.01;65.29;99355.81;5091127;28;41760;-77
2022/04/11 00:50:59;;;;;;;4.23;3.10;;;;;;;1.91;65.43;99341.22;5090667;28;43255;-78
2022/04/11 00:53:30;;;;;;;3.43;2.77;;;;;;;1.99;65.40;99366.28;5073846;28;41311;-78
2022/04/11 00:56:00;;;;;;;3.13;2.50;;;;;;;1.82;65.45;99342.28;5073605;28;38987;-78
2022/04/11 00:58:31;;;;;;;4.70;3.13;;;;;;;1.91;65.45;99362.97;5073844;28;41943;-77
2022/04/11 01:01:00;;;;;;;4.20;2.90;;;;;;;1.90;65.37;99357.78;5073994;28;43115;-78
2022/04/11 01:03:27;;;;;;;3.83;2.47;;;;;;;1.86;65.29;99356.97;5073998;28;41587;-77
2022/04/11 01:05:55;;;;;;;2.77;2.13;;;;;;;1.85;65.67;99354.41;5073994;28;39087;-78
2022/04/11 01:08:23;;;;;;;2.90;2.50;;;;;;;1.79;65.56;99353.63;5107362;28;40800;-78
2022/04/11 01:10:52;;;;;;;3.73;3.20;;;;;;;1.78;65.94;99344.06;5124958;27;42855;-78
2022/04/11 01:13:20;;;;;;;5.77;3.00;;;;;;;1.67;65.97;99321.69;5091172;28;43213;-78
2022/04/11 01:15:56;;;;;;;6.33;3.77;;;;;;;1.77;65.83;99344.97;5107573;28;38478;-79
2022/04/11 01:18:24;;;;;;;4.43;3.00;;;;;;;1.74;65.90;99345.03;5090656;28;41782;-78
2022/04/11 01:20:53;;;;;;;3.87;2.97;;;;;;;1.74;66.15;99342.41;5073381;28;41416;-79
2022/04/11 01:23:22;;;;;;;3.97;3.13;;;;;;;1.74;66.06;99350.25;5073551;28;41178;-78
2022/04/11 01:25:51;;;;;;;4.23;3.00;;;;;;;1.73;66.11;99342.47;5091609;28;40976;-79
2022/04/11 01:28:20;;;;;;;3.50;3.20;;;;;;;1.75;66.08;99351.09;5107558;28;41585;-77
2022/04/11 01:30:48;;;;;;;3.97;3.30;;;;;;;1.73;66.06;99348.50;5107211;28;42906;-78
2022/04/11 01:33:18;;;;;;;3.40;3.10;;;;;;;1.74;66.09;99350.25;5073378;28;42240;-77
2022/04/11 01:35:46;;;;;;;3.30;2.93;;;;;;;1.35;65.90;99272.72;5073432;28;40180;-78
2022/04/11 01:38:13;;;;;;;5.10;3.37;;;;;;;1.71;65.73;99336.41;5073141;28;42802;-78
2022/04/11 01:40:59;;;;;;;3.13;2.73;;;;;;;1.74;65.80;99339.78;5090158;28;42752;-78
2022/04/11 01:43:27;;;;;;;3.60;2.50;;;;;;;1.78;65.52;99346.69;5073519;28;41494;-78
2022/04/11 01:45:57;;;;;;;4.93;2.67;;;;;;;1.80;66.30;99341.44;5111844;27;40280;-78
2022/04/11 01:48:43;;;;;;;5.90;3.27;;;;;;;1.82;65.97;99346.63;5081070;28;42024;-78
2022/04/11 01:51:13;;;;;;;3.60;2.90;;;;;;;1.84;65.83;99344.88;5069801;28;41841;-78
2022/04/11 01:53:41;;;;;;;5.20;3.40;;;;;;;1.85;65.93;99341.38;5069621;28;43253;-78
2022/04/11 01:56:10;;;;;;;4.10;3.40;;;;;;;1.88;65.61;99347.38;5052842;28;40585;-78
2022/04/11 01:58:38;;;;;;;4.93;3.03;;;;;;;1.90;65.64;99344.72;5052392;28;41797;-77
2022/04/11 02:01:05;;;;;;;3.00;2.70;;;;;;;1.90;65.73;99342.13;5052894;28;42067;-78
2022/04/11 02:03:35;;;;;;;3.87;3.50;;;;;;;1.90;65.67;99348.19;5061550;28;42220;-78
2022/04/11 02:06:04;;;;;;;4.00;3.20;;;;;;;1.77;65.32;99324.06;5069619;28;39933;-79
2022/04/11 02:08:31;;;;;;;3.03;2.70;;;;;;;1.90;65.27;99342.13;5080126;28;42664;-78
2022/04/11 02:11:04;;;;;;;3.03;2.37;;;;;;;1.90;65.20;99347.34;5086788;28;42818;-77
2022/04/11 02:13:34;;;;;;;4.90;3.03;;;;;;;1.91;65.44;99356.91;5106845;28;41111;-77
2022/04/11 02:16:01;;;;;;;4.70;3.03;;;;;;;1.82;65.38;99342.28;5089574;28;40028;-77
2022/04/11 02:18:29;;;;;;;3.10;2.73;;;;;;;1.88;65.24;99351.72;5089927;28;41718;-78
2022/04/11 02:20:56;;;;;;;2.57;2.17;;;;;;;1.89;65.31;99349.09;5072395;28;42229;-78
2022/04/11 02:23:24;;;;;;;3.43;2.53;;;;;;;1.91;65.37;99356.91;5072690;28;41124;-78
2022/04/11 02:25:52;;;;;;;4.13;3.00;;;;;;;1.89;65.31;99350.84;5089519;28;41864;-79
2022/04/11 02:28:20;;;;;;;2.77;2.30;;;;;;;1.92;65.16;99348.19;5123819;27;42670;-78
2022/04/11 02:30:51;;;;;;;3.57;2.50;;;;;;;1.94;65.35;99346.41;5089436;28;43774;-78
2022/04/11 02:33:19;;;;;;;3.20;2.83;;;;;;;1.71;65.53;99312.91;5089528;28;40991;-77
2022/04/11 02:35:47;;;;;;;2.90;2.50;;;;;;;1.96;65.74;99349.84;5089592;28;41127;-78
2022/04/11 02:38:15;;;;;;;3.90;3.43;;;;;;;1.98;65.88;99345.47;5106437;28;40532;-78
2022/04/11 02:40:43;;;;;;;3.47;2.80;;;;;;;2.01;65.91;99334.91;5072530;28;41642;-77
2022/04/11 02:43:15;;;;;;;3.50;3.20;;;;;;;2.03;65.93;99340.97;5106623;28;41393;-78
2022/04/11 02:46:07;;;;;;;4.83;3.27;;;;;;;2.05;65.79;99344.44;5089171;28;40334;-78
2022/04/11 02:48:38;;;;;;;4.73;3.13;;;;;;;1.90;65.73;99314.25;5072242;28;40829;-77
2022/04/11 02:51:19;;;;;;;3.53;2.50;;;;;;;2.06;65.81;99341.78;5074521;28;41910;-77
2022/04/11 02:53:52;;;;;;;5.67;3.10;;;;;;;1.97;65.79;99318.47;5075915;28;41103;-78
2022/04/11 02:56:20;;;;;;;3.53;3.10;;;;;;;2.10;65.77;99337.38;5071480;28;38612;-78
2022/04/11 02:58:48;;;;;;;2.50;2.30;;;;;;;2.09;65.62;99335.66;5070754;28;42670;-78
2022/04/11 03:01:17;;;;;;;2.70;2.47;;;;;;;2.11;65.70;99333.84;5075405;28;44217;-77
2022/04/11 03:03:48;;;;;;;4.73;2.63;;;;;;;2.11;65.45;99326.00;5080901;28;42376;-77
2022/04/11 03:06:16;;;;;;;2.70;2.33;;;;;;;2.11;65.53;99328.59;5055398;28;38835;-77
2022/04/11 03:08:47;;;;;;;2.37;2.17;;;;;;;1.98;65.39;99317.56;5072662;28;41477;-77
2022/04/11 03:11:21;;;;;;;4.50;2.70;;;;;;;2.10;65.55;99335.59;5055055;28;41534;-78
2022/04/11 03:13:49;;;;;;;3.37;2.40;;;;;;;2.09;65.65;99331.28;5071317;28;40845;-77
2022/04/11 03:16:19;;;;;;;3.63;2.63;;;;;;;2.09;65.68;99335.66;5071942;28;41846;-78
2022/04/11 03:18:48;;;;;;;2.30;2.10;;;;;;;2.07;65.67;99332.19;5069243;28;41784;-77
2022/04/11 03:21:16;;;;;;;2.43;2.23;;;;;;;2.03;65.75;99320.94;5071891;28;44089;-77
2022/04/11 03:24:00;;;;;;;2.73;2.20;;;;;;;2.06;66.48;99320.03;5055067;28;42672;-78
2022/04/11 03:26:28;;;;;;;4.97;3.00;;;;;;;2.06;66.67;99322.63;5054898;28;38828;-77
2022/04/11 03:28:57;;;;;;;3.90;3.03;;;;;;;2.06;68.82;99306.97;5054962;28;41750;-77
2022/04/11 03:31:26;;;;;;;5.23;3.60;;;;;;;2.06;68.20;99304.34;5073347;28;43794;-78
2022/04/11 03:33:54;;;;;;;5.53;3.87;;;;;;;2.06;68.58;99304.34;5071963;28;42299;-77
2022/04/11 03:36:22;;;;;;;5.50;3.33;;;;;;;2.05;68.69;99303.50;5054760;28;39181;-77
2022/04/11 03:38:50;;;;;;;3.63;3.30;;;;;;;2.05;69.06;99302.63;5071592;28;42729;-77
2022/04/11 03:41:20;;;;;;;6.33;4.07;;;;;;;2.06;68.82;99306.97;5071857;28;41689;-78
2022/04/11 03:43:48;;;;;;;6.37;3.90;;;;;;;2.06;68.39;99304.34;5054872;28;41048;-77
2022/04/11 03:46:16;;;;;;;3.50;3.13;;;;;;;2.05;68.09;99300.03;5087409;28;39890;-77
2022/04/11 03:48:46;;;;;;;4.77;3.23;;;;;;;2.03;68.09;99299.19;5092144;28;42036;-78
2022/04/11 03:51:14;;;;;;;5.50;3.67;;;;;;;2.02;67.74;99305.31;5074721;28;42918;-78
2022/04/11 03:53:42;;;;;;;5.30;3.00;;;;;;;2.00;67.54;99296.63;5074799;28;44382;-77
2022/04/11 03:56:10;;;;;;;3.57;2.87;;;;;;;1.98;67.56;99301.88;5074955;28;40314;-77
2022/04/11 03:58:38;;;;;;;3.10;2.47;;;;;;;1.94;67.65;99294.16;5062779;28;40592;-77
2022/04/11 04:01:07;;;;;;;5.37;3.77;;;;;;;1.80;68.37;99270.94;5072391;28;43719;-77
2022/04/11 04:03:37;;;;;;;5.40;3.60;;;;;;;1.77;68.19;99271.84;5054348;28;41270;-77
2022/04/11 04:06:12;;;;;;;3.27;2.97;;;;;;;1.88;67.93;99294.28;5054592;28;41259;-77
2022/04/11 04:08:43;;;;;;;4.40;3.00;;;;;;;1.86;67.79;99301.28;5055200;28;40569;-77
2022/04/11 04:11:18;;;;;;;4.37;2.73;;;;;;;1.80;67.84;99287.47;5054390;28;41798;-77
2022/04/11 04:14:04;;;;;;;2.77;2.40;;;;;;;1.80;67.91;99291.84;5061262;28;41393;-77
2022/04/11 04:16:37;;;;;;;3.77;2.90;;;;;;;1.78;68.05;99291.00;5089209;28;40985;-77
2022/04/11 04:19:08;;;;;;;4.17;2.77;;;;;;;1.77;67.89;99297.97;5088427;28;41832;-77
2022/04/11 04:21:37;;;;;;;6.10;4.03;;;;;;;1.77;67.80;99297.97;5091100;28;42950;-78
2022/04/11 04:24:08;;;;;;;5.77;3.63;;;;;;;1.75;67.59;99294.53;5074280;28;41326;-77
2022/04/11 04:26:37;;;;;;;4.07;3.03;;;;;;;1.70;67.50;99288.56;5080755;28;40717;-77
2022/04/11 04:29:07;;;;;;;4.63;3.37;;;;;;;1.74;67.80;99287.56;5104605;28;41834;-77
2022/04/11 04:31:39;;;;;;;4.50;3.57;;;;;;;1.75;67.57;99289.28;5053968;28;41836;-78
2022/04/11 04:34:07;;;;;;;3.87;3.20;;;;;;;1.78;67.53;99293.59;5053369;28;42181;-77
2022/04/11 04:36:35;;;;;;;4.73;3.13;;;;;;;1.79;67.54;99296.19;5060425;28;38985;-77
2022/04/11 04:39:04;;;;;;;3.83;2.67;;;;;;;1.80;67.45;99297.91;5090896;28;45014;-77
2022/04/11 04:41:37;;;;;;;4.23;3.40;;;;;;;1.82;67.54;99289.19;5057555;28;41756;-77
2022/04/11 04:44:06;;;;;;;5.07;3.07;;;;;;;1.83;67.70;99290.91;5053543;28;41392;-77
2022/04/11 04:46:34;;;;;;;3.17;2.87;;;;;;;1.84;67.75;99288.28;5053620;28;40104;-78
2022/04/11 04:49:08;;;;;;;3.77;2.87;;;;;;;1.87;67.39;99285.56;5051778;28;40697;-77
2022/04/11 04:51:37;;;;;;;4.17;2.80;;;;;;;1.90;67.41;99284.66;5053420;28;41823;-77
2022/04/11 04:54:07;;;;;;;6.37;3.80;;;;;;;1.92;67.52;99280.28;5036265;28;41561;-78
2022/04/11 04:56:37;;;;;;;3.53;3.13;;;;;;;1.95;67.30;99283.69;5067148;28;40817;-77
2022/04/11 04:59:11;;;;;;;3.77;2.80;;;;;;;2.00;67.21;99279.22;5047681;28;41401;-77
2022/04/11 05:01:40;;;;;;;5.93;3.30;;;;;;;2.05;67.15;99276.50;5033671;28;41998;-77
2022/04/11 05:04:08;;;;;;;5.60;2.93;;;;;;;1.89;67.14;99244.63;5066956;28;41362;-78
2022/04/11 05:06:37;;;;;;;3.90;3.47;;;;;;;2.14;67.18;99290.22;5033693;28;39260;-76
2022/04/11 05:09:10;;;;;;;4.17;3.40;;;;;;;2.21;66.99;99277.91;5081012;28;41654;-77
2022/04/11 05:11:39;;;;;;;3.53;3.10;;;;;;;2.28;66.96;99284.69;5066766;28;41931;-78
2022/04/11 05:14:07;;;;;;;4.77;3.07;;;;;;;2.34;66.73;99284.56;5038215;28;44065;-77
2022/04/11 05:16:37;;;;;;;5.37;3.40;;;;;;;2.41;66.97;99290.50;5053277;28;41005;-77
2022/04/11 05:19:06;;;;;;;3.83;3.30;;;;;;;2.48;66.98;99292.94;5069980;28;41727;-77
2022/04/11 05:21:34;;;;;;;5.53;3.87;;;;;;;2.56;66.84;99294.53;5070081;28;42793;-78
2022/04/11 05:24:01;;;;;;;4.33;3.93;;;;;;;2.63;66.66;99275.19;5070204;28;42416;-77
2022/04/11 05:26:32;;;;;;;4.43;3.50;;;;;;;2.58;66.65;99259.63;5069817;28;39019;-77
2022/04/11 05:29:03;;;;;;;5.40;3.43;;;;;;;2.89;66.63;99285.88;5052427;28;41045;-78
2022/04/11 05:31:32;;;;;;;4.60;3.67;;;;;;;2.94;66.97;99273.56;5052015;28;42025;-78
2022/04/11 05:34:01;;;;;;;5.87;4.07;;;;;;;3.07;66.99;99290.66;5069991;28;43149;-77
2022/04/11 05:36:29;;;;;;;6.53;5.23;;;;;;;3.16;67.44;99287.81;5069928;28;40947;-78
2022/04/11 05:38:58;;;;;;;6.47;4.90;;;;;;;3.23;67.47;99284.09;5070914;28;42523;-77
2022/04/11 05:41:27;;;;;;;7.17;5.03;;;;;;;3.31;67.55;99285.69;5052630;28;42842;-77
2022/04/11 05:43:57;;;;;;;5.70;4.93;;;;;;;3.37;67.35;99288.13;5069218;28;43411;-77
2022/04/11 05:46:30;;;;;;;6.63;4.90;;;;;;;3.42;68.04;99288.88;5052888;28;40849;-77
2022/04/11 05:49:06;;;;;;;8.10;5.50;;;;;;;3.44;67.60;99282.72;5053124;28;41717;-77
2022/04/11 05:51:34;;;;;;;7.90;5.13;;;;;;;3.49;67.98;99280.81;5053041;28;42920;-78
2022/04/11 05:54:02;;;;;;;7.30;5.37;;;;;;;3.55;67.76;99279.78;5052910;28;42271;-77
2022/04/11 05:56:30;;;;;;;8.47;5.67;;;;;;;3.60;67.86;99283.13;5068630;28;40092;-77
2022/04/11 05:58:59;;;;;;;7.80;5.13;;;;;;;3.67;67.76;99295.16;5051690;28;40603;-77
2022/04/11 06:01:27;;;;;;;7.93;5.17;;;;;;;3.64;67.39;99274.28;5066744;28;42320;-78
2022/04/11 06:03:55;;;;;;;7.40;5.07;;;;;;;3.85;67.56;99299.00;5085878;28;42513;-77
2022/04/11 06:06:22;;;;;;;5.93;5.03;;;;;;;3.99;67.31;99302.09;5070931;28;38843;-77
2022/04/11 06:08:51;;;;;;;6.73;4.70;;;;;;;4.15;67.00;99302.53;5076283;28;41406;-77
2022/04/11 06:11:18;;;;;;;6.47;4.97;;;;;;;4.24;66.97;99310.09;5066622;28;43086;-78
2022/04/11 06:13:48;;;;;;;5.87;4.90;;;;;;;4.34;66.95;99319.41;5073099;28;42538;-79
2022/04/11 06:16:18;;;;;;;5.73;4.57;;;;;;;4.51;66.61;99311.03;5091673;28;39992;-78
2022/04/11 06:18:46;;;;;;;7.27;5.33;;;;;;;4.68;66.12;99322.75;5090932;28;40722;-78
2022/04/11 06:21:14;;;;;;;5.23;4.73;;;;;;;4.93;66.04;99324.59;5074812;28;42556;-78
2022/04/11 06:23:42;;;;;;;7.07;5.47;;;;;;;5.23;65.33;99323.56;5058448;28;41357;-77
2022/04/11 06:26:09;;;;;;;4.77;4.27;;;;;;;5.40;65.28;99326.50;5067084;28;40906;-76
2022/04/11 06:28:42;;;;;;;6.97;4.10;;;;;;;5.39;65.14;99324.78;5066232;28;42525;-79
2022/04/11 06:31:14;;;;;;;5.90;4.77;;;;;;;5.45;65.28;99322.84;5068780;28;42825;-81
2022/04/11 06:33:46;;;;;;;7.20;4.20;;;;;;;5.46;65.08;99319.28;5043561;28;41446;-82
2022/04/11 06:36:14;;;;;;;8.37;5.50;;;;;;;5.54;65.31;99317.28;5052231;28;40600;-81
2022/04/11 06:38:42;;;;;;;10.57;5.83;;;;;;;5.58;66.21;99308.38;5051467;28;41838;-81
2022/04/11 06:41:10;;;;;;;6.30;5.47;;;;;;;5.55;66.13;99292.72;5067609;28;42808;-82
2022/04/11 06:43:38;;;;;;;7.83;6.23;;;;;;;5.70;66.31;99303.53;5068298;28;43095;-80
2022/04/11 06:46:25;;;;;;;7.73;5.87;;;;;;;5.49;66.15;99253.53;5067254;28;40700;-81
2022/04/11 06:48:56;;;;;;;11.77;7.20;;;;;;;5.88;66.83;99306.44;5068407;28;41627;-79
2022/04/11 06:51:23;;;;;;;7.73;6.10;;;;;;;6.01;67.28;99297.22;5051800;28;41998;-82
2022/04/11 06:53:51;;;;;;;8.20;6.40;;;;;;;6.21;67.33;99302.56;5051679;28;42398;-78
2022/04/11 06:56:18;;;;;;;8.77;6.57;;;;;;;6.23;66.86;99282.34;5065786;28;40000;-81
2022/04/11 06:58:46;;;;;;;7.13;5.90;;;;;;;6.42;67.63;99290.41;5066012;28;41620;-78
2022/04/11 07:01:14;;;;;;;7.50;6.27;;;;;;;6.63;67.93;99302.72;5069373;28;42734;-81
2022/04/11 07:03:41;;;;;;;8.73;6.33;;;;;;;6.84;67.44;99301.84;5067453;28;41498;-81
2022/04/11 07:06:11;;;;;;;6.27;5.57;;;;;;;7.24;66.13;99315.16;5052566;28;38829;-81
2022/04/11 07:08:38;;;;;;;6.37;4.93;;;;;;;7.75;64.68;99307.66;5070852;28;40805;-82
2022/04/11 07:11:06;;;;;;;8.47;5.13;;;;;;;8.17;62.89;99319.84;5084016;28;42740;-83
2022/04/11 07:13:35;;;;;;;7.07;5.07;;;;;;;8.51;62.00;99313.94;5071970;28;41931;-83
2022/04/11 07:16:03;;;;;;;6.93;5.27;;;;;;;8.89;61.64;99318.25;5073213;28;39613;-81
2022/04/11 07:18:33;;;;;;;7.20;5.13;;;;;;;9.09;60.17;99329.63;5051586;28;40522;-80
2022/04/11 07:21:01;;;;;;;6.40;5.10;;;;;;;9.44;60.24;99302.28;5050356;28;41693;-82
2022/04/11 07:23:30;;;;;;;5.60;5.03;;;;;;;10.14;58.92;99334.81;5070101;28;42265;-79
2022/04/11 07:25:58;;;;;;;8.50;5.50;;;;;;;10.38;57.23;99329.09;5067069;28;40786;-84
2022/04/11 07:28:25;;;;;;;7.57;5.20;;;;;;;10.70;56.43;99329.13;5069061;28;42796;-82
2022/04/11 07:30:53;;;;;;;7.70;5.40;;;;;;;11.19;56.52;99336.94;5067063;28;42540;-80
2022/04/11 07:33:21;;;;;;;6.07;5.43;;;;;;;11.65;54.56;99330.66;5051022;28;42509;-81
2022/04/11 07:35:48;;;;;;;5.60;5.10;;;;;;;12.48;53.06;99348.63;5069714;28;39881;-80
2022/04/11 07:38:16;;;;;;;7.60;5.40;;;;;;;13.43;50.15;99356.69;5051736;28;40925;-78
2022/04/11 07:40:45;;;;;;;5.97;5.03;;;;;;;14.25;49.48;99359.06;5048258;28;43038;-79
2022/04/11 07:43:14;;;;;;;9.53;5.00;;;;;;;14.56;48.41;99357.81;5072171;28;42239;-83
2022/04/11 07:45:42;;;;;;;5.80;5.20;;;;;;;14.77;46.91;99339.41;5067627;28;39759;-85
2022/04/11 07:48:10;;;;;;;5.50;5.00;;;;;;;14.86;46.21;99348.56;5067570;28;40826;-83
2022/04/11 07:50:37;;;;;;;5.90;5.10;;;;;;;14.78;46.64;99357.13;5069303;28;43492;-83
2022/04/11 07:53:05;;;;;;;6.03;5.10;;;;;;;14.73;46.94;99352.09;5051737;28;42534;-83
2022/04/11 07:55:33;;;;;;;5.37;4.87;;;;;;;15.17;45.81;99358.72;5066478;28;39635;-80
2022/04/11 07:58:04;;;;;;;4.87;4.20;;;;;;;15.94;44.25;99341.34;5068191;28;43349;-81
2022/04/11 08:00:32;;;;;;;5.90;4.93;;;;;;;17.06;43.31;99360.16;5068661;28;43820;-81
2022/04/11 08:03:00;;;;;;;5.17;4.67;;;;;;;18.22;40.60;99360.16;5066647;28;41278;-85
2022/04/11 08:05:27;;;;;;;4.47;3.80;;;;;;;19.26;38.89;99386.78;5046709;28;40015;-83
2022/04/11 08:07:55;;;;;;;3.97;3.57;;;;;;;20.10;35.99;99392.53;5068101;28;40914;-82
2022/04/11 08:10:23;;;;;;;4.17;3.77;;;;;;;21.14;35.38;99384.28;5050421;28;42720;-80
2022/04/11 08:13:00;;;;;;;3.87;3.50;;;;;;;22.45;32.68;99392.66;5068301;28;42011;-83
2022/04/11 08:15:31;;;;;;;4.07;3.50;;;;;;;23.35;31.39;99406.69;5062330;28;40235;-81
2022/04/11 08:18:01;;;;;;;3.67;3.37;;;;;;;23.23;30.01;99387.22;5049157;28;40911;-83
2022/04/11 08:20:29;;;;;;;3.47;3.17;;;;;;;23.58;29.89;99396.97;5046584;28;41759;-82
2022/04/11 08:22:57;;;;;;;3.50;3.20;;;;;;;24.70;27.73;99403.44;5049816;28;41393;-81
2022/04/11 08:25:24;;;;;;;4.43;4.03;;;;;;;26.13;25.30;99438.41;5049904;28;38960;-81
2022/04/11 08:27:53;;;;;;;4.13;3.83;;;;;;;27.10;24.41;99446.72;5066784;28;41760;-83
2022/04/11 08:30:21;;;;;;;3.80;3.43;;;;;;;28.11;25.12;99405.91;5045977;28;42585;-82
2022/04/11 08:32:53;;;;;;;4.07;3.67;;;;;;;29.43;23.27;99436.91;5067849;28;42818;-81
2022/04/11 08:35:22;;;;;;;3.60;3.30;;;;;;;30.48;22.08;99438.25;5066758;28;39005;-83
2022/04/11 08:37:51;;;;;;;4.00;3.40;;;;;;;30.77;20.13;99450.72;5067203;28;40724;-81
2022/04/11 08:40:20;;;;;;;4.57;3.57;;;;;;;30.70;20.13;99445.22;5065683;28;41586;-78
2022/04/11 08:42:49;;;;;;;4.40;4.07;;;;;;;30.69;20.12;99422.50;5066896;28;42916;-78
2022/04/11 08:45:20;;;;;;;3.83;3.23;;;;;;;31.08;19.75;99427.06;5065808;28;40802;-81
2022/04/11 08:47:48;;;;;;;3.87;3.57;;;;;;;31.62;18.96;99431.34;5067496;28;41676;-83
2022/04/11 08:50:19;;;;;;;3.23;3.03;;;;;;;32.58;19.01;99444.06;5067686;28;42620;-83
2022/04/11 08:52:50;;;;;;;3.75;3.08;;;;;;;33.11;17.75;99448.03;5068761;28;42067;-79
2022/04/11 08:55:18;;;;;;;4.10;3.05;;;;;;;33.29;17.59;99440.91;5062829;28;40905;-79
2022/04/11 08:57:46;;;;;;;2.38;2.25;;;;;;;33.08;17.62;99429.28;5050478;28;40519;-80
2022/04/11 09:00:16;;;;;;;4.55;3.40;;;;;;;32.83;17.84;99429.31;5048470;28;43113;-81
2022/04/11 09:02:45;;;;;;;3.80;3.40;;;;;;;32.65;17.62;99422.91;5050146;28;44435;-83
2022/04/11 09:05:19;;;;;;;3.53;3.15;;;;;;;32.86;18.04;99417.06;5060011;28;40705;-83
2022/04/11 09:07:51;;;;;;;3.47;3.17;;;;;;;33.07;17.89;99416.63;5066351;28;42376;-80
2022/04/11 09:10:20;;;;;;;3.85;2.97;;;;;;;33.44;17.15;99406.50;5062914;28;43500;-81
2022/04/11 09:12:49;;;;;;;2.80;2.60;;;;;;;33.98;16.85;99417.66;5066449;28;42991;-81
2022/04/11 09:15:17;;;;;;;4.10;3.72;;;;;;;33.52;16.44;99419.06;5066908;28;40884;-81
2022/04/11 09:17:52;;;;;;;4.00;3.35;;;;;;;32.37;18.03;99402.28;5066638;28;41807;-85
2022/04/11 09:20:22;;;;;;;3.77;3.43;;;;;;;30.64;18.61;99383.19;5063660;28;42112;-84
2022/04/11 09:22:52;;;;;;;5.50;3.10;;;;;;;29.12;20.20;99357.41;5066595;28;43358;-85
2022/04/11 09:25:21;;;;;;;3.83;3.20;;;;;;;28.11;20.65;99381.38;5063257;28;38557;-81
2022/04/11 09:28:04;;;;;;;3.50;3.10;;;;;;;27.34;21.52;99378.41;5049602;28;40755;-80
2022/04/11 09:30:32;;;;;;;4.27;3.57;;;;;;;27.08;22.05;99368.03;5059716;28;41678;-82
2022/04/11 09:33:02;;;;;;;3.33;3.03;;;;;;;27.39;21.61;99365.09;5062720;28;41380;-83
2022/04/11 09:35:32;;;;;;;4.63;3.37;;;;;;;27.82;20.94;99355.13;5059366;28;39888;-81
2022/04/11 09:38:22;;;;;;;3.00;2.80;;;;;;;27.54;20.98;99357.75;5048753;28;41969;-83
2022/04/11 09:40:52;;;;;;;3.60;3.20;;;;;;;26.77;22.52;99351.91;5058539;28;43449;-82
2022/04/11 09:43:25;;;;;;;3.33;3.03;;;;;;;26.10;22.82;99330.16;5065534;28;41133;-81
2022/04/11 09:45:54;;;;;;;3.57;3.03;;;;;;;26.13;22.34;99331.66;5044912;28;39311;-80
2022/04/11 09:48:24;;;;;;;3.80;3.40;;;;;;;26.60;21.34;99355.84;5065831;28;42478;-80
2022/04/11 09:50:53;;;;;;;3.87;2.87;;;;;;;27.11;20.64;99362.22;5045116;28;41460;-82
2022/04/11 09:53:24;;;;;;;2.70;2.50;;;;;;;27.63;20.60;99349.50;5064428;28;41960;-78
2022/04/11 09:55:55;;;;;;;2.93;2.70;;;;;;;27.99;20.73;99354.88;5059276;28;40795;-80
2022/04/11 09:58:24;;;;;;;3.40;3.10;;;;;;;27.22;21.23;99339.16;5064367;28;40880;-82
2022/04/11 10:00:52;;;;;;;3.37;3.07;;;;;;;26.56;22.23;99327.38;5062262;28;43535;-81
2022/04/11 10:03:22;;;;;;;3.33;3.03;;;;;;;25.97;22.24;99324.50;5048784;28;41783;-84
2022/04/11 10:05:50;;;;;;;2.57;2.37;;;;;;;25.83;22.35;99311.75;5068118;28;39998;-82
2022/04/11 10:08:19;;;;;;;3.60;3.00;;;;;;;26.27;22.10;99319.16;5051919;28;41888;-81
2022/04/11 10:10:55;;;;;;;3.67;2.57;;;;;;;26.95;22.33;99318.13;5065699;28;43528;-80
2022/04/11 10:13:23;;;;;;;2.93;2.50;;;;;;;27.81;21.73;99292.72;5051015;28;41659;-79
2022/04/11 10:15:51;;;;;;;2.83;2.40;;;;;;;28.00;21.41;99308.38;5047416;28;39015;-79
2022/04/11 10:18:25;;;;;;;2.87;2.50;;;;;;;27.76;20.24;99309.63;5067944;28;41639;-81
2022/04/11 10:20:56;;;;;;;3.00;2.50;;;;;;;28.16;19.56;99321.72;5042120;28;41575;-81
2022/04/11 10:23:31;;;;;;;3.07;2.87;;;;;;;29.07;18.58;99303.44;5036348;28;42707;-82
2022/04/11 10:26:03;;;;;;;2.40;2.20;;;;;;;30.64;18.22;99315.69;5064074;28;39987;-80
2022/04/11 10:28:31;;;;;;;3.43;2.97;;;;;;;31.99;17.36;99325.59;5051426;28;40910;-79
2022/04/11 10:31:09;;;;;;;3.23;2.60;;;;;;;32.43;16.65;99321.84;5050784;28;43742;-81
2022/04/11 10:33:45;;;;;;;3.03;2.72;;;;;;;33.43;17.39;99305.94;5051948;28;41654;-79
2022/04/11 10:36:42;;;;;;;3.08;2.65;;;;;;;34.39;15.07;99324.16;5049890;28;39057;-79
2022/04/11 10:39:26;;;;;;;2.75;2.15;;;;;;;34.59;13.96;99327.38;5050964;28;40963;-80
2022/04/11 10:42:10;;;;;;;2.63;2.03;;;;;;;34.75;13.56;99338.72;5056785;28;43483;-83
2022/04/11 10:44:39;;;;;;;5.22;1.98;;;;;;;35.15;14.17;99325.88;5065142;28;42446;-81
2022/04/11 10:47:33;;;;;;;2.35;2.15;;;;;;;35.47;13.87;99329.06;5066492;28;41842;-82
2022/04/11 10:50:24;;;;;;;1.90;1.80;;;;;;;35.68;13.56;99338.53;5049595;28;40508;-82
2022/04/11 10:53:06;;;;;;;2.40;2.20;;;;;;;35.05;13.78;99336.69;5082025;28;41766;-80
2022/04/11 10:55:34;;;;;;;1.80;1.70;;;;;;;34.86;13.78;99327.75;5050247;28;43230;-82
2022/04/11 10:58:04;;;;;;;3.40;2.10;;;;;;;35.00;14.49;99314.53;5067614;28;40180;-82
2022/04/11 11:00:33;;;;;;;3.23;2.13;;;;;;;34.96;14.46;99296.00;5068041;28;41477;-82
2022/04/11 11:03:13;;;;;;;3.10;2.20;;;;;;;34.44;13.51;99313.28;5050058;28;42979;-84
2022/04/11 11:05:43;;;;;;;2.07;1.87;;;;;;;33.78;15.90;99288.78;5051462;28;43091;-85
2022/04/11 11:08:41;;;;;;;2.40;2.20;;;;;;;33.42;15.77;99276.81;5050677;28;39607;-81
2022/04/11 11:11:23;;;;;;;2.27;2.07;;;;;;;33.22;15.15;99284.47;5048455;28;41712;-82
2022/04/11 11:13:54;;;;;;;2.60;2.40;;;;;;;33.56;14.96;99280.19;5053753;28;41431;-84
2022/04/11 11:16:36;;;;;;;2.50;2.10;;;;;;;33.96;14.40;99263.13;5053354;28;41206;-81
2022/04/11 11:19:12;;;;;;;2.07;1.97;;;;;;;34.76;14.61;99272.47;5071587;28;40148;-84
2022/04/11 11:22:00;;;;;;;2.13;1.98;;;;;;;35.25;13.45;99290.31;5045843;28;41722;-84
2022/04/11 11:24:29;;;;;;;2.80;2.20;;;;;;;35.43;12.98;99285.69;5054946;28;42203;-83
2022/04/11 11:26:59;;;;;;;2.17;1.98;;;;;;;35.48;13.61;99264.59;5052481;28;40917;-79
2022/04/11 11:29:31;;;;;;;1.98;1.70;;;;;;;35.60;14.88;99251.59;5071875;28;40683;-83
2022/04/11 11:32:01;;;;;;;2.60;2.15;;;;;;;34.75;13.04;99261.66;5061312;28;41907;-85
2022/04/11 11:34:30;;;;;;;2.43;2.10;;;;;;;33.67;14.24;99245.59;5071622;28;43163;-83
2022/04/11 11:37:00;;;;;;;2.00;1.90;;;;;;;33.08;14.91;99226.16;5068964;28;42134;-81
2022/04/11 11:39:29;;;;;;;2.20;2.00;;;;;;;34.07;14.51;99235.66;5054409;28;39913;-83
2022/04/11 11:42:02;;;;;;;2.03;1.67;;;;;;;35.16;14.44;99231.16;5044436;28;40777;-82
2022/04/11 11:44:33;;;;;;;2.27;2.07;;;;;;;35.54;12.82;99243.47;5067789;28;43948;-83
2022/04/11 11:47:02;;;;;;;2.00;1.87;;;;;;;35.67;12.96;99234.88;5052638;28;42382;-82
2022/04/11 11:49:40;;;;;;;2.63;1.90;;;;;;;35.85;12.50;99248.47;5053416;28;38708;-81
2022/04/11 11:52:12;;;;;;;2.30;1.97;;;;;;;35.92;13.78;99226.25;5043724;28;41995;-82
2022/04/11 11:54:41;;;;;;;2.20;2.00;;;;;;;35.84;12.33;99255.06;5070871;28;42787;-82